createdAt,value
2023-10-18T00:00:08.344Z,91.61
2023-10-18T00:00:39.036Z,91.51
2023-10-18T00:01:09.726Z,91.72
2023-10-18T00:01:40.438Z,90.89
2023-10-18T00:02:11.070Z,90.47
2023-10-18T00:02:41.662Z,91.20
2023-10-18T00:03:12.443Z,91.51
2023-10-18T00:03:43.327Z,91.72
2023-10-18T00:04:14.083Z,91.82
2023-10-18T00:04:44.680Z,92.28
2023-10-18T00:05:15.277Z,92.24
2023-10-18T00:05:45.891Z,92.28
2023-10-18T00:06:16.486Z,92.18
2023-10-18T00:06:47.138Z,91.97
2023-10-18T00:07:17.724Z,91.97
2023-10-18T00:07:48.315Z,92.18
2023-10-18T00:08:18.932Z,92.13
2023-10-18T00:08:49.531Z,92.18
2023-10-18T00:09:20.131Z,92.28
2023-10-18T00:09:50.803Z,92.59
2023-10-18T00:10:21.344Z,92.28
2023-10-18T00:10:51.997Z,91.97
2023-10-18T00:11:22.594Z,91.76
2023-10-18T00:11:53.242Z,91.97
2023-10-18T00:12:23.845Z,91.97
2023-10-18T00:12:54.480Z,92.07
2023-10-18T00:13:25.056Z,92.38
2023-10-18T00:13:55.660Z,92.38
2023-10-18T00:14:26.254Z,92.38
2023-10-18T00:14:56.875Z,92.38
2023-10-18T00:15:27.485Z,92.38
2023-10-18T00:15:58.112Z,92.18
2023-10-18T00:16:28.680Z,92.59
2023-10-18T00:16:59.283Z,92.90
2023-10-18T00:17:30.081Z,92.80
2023-10-18T00:18:00.746Z,92.69
2023-10-18T00:18:31.531Z,92.90
2023-10-18T00:19:02.303Z,93.10
2023-10-18T00:19:33.125Z,93.04
2023-10-18T00:20:03.783Z,93.04
2023-10-18T00:20:34.379Z,93.15
2023-10-18T00:21:05.059Z,93.15
2023-10-18T00:21:35.662Z,92.84
2023-10-18T00:22:06.284Z,92.74
2023-10-18T00:22:36.871Z,92.84
2023-10-18T00:23:07.475Z,93.04
2023-10-18T00:23:38.093Z,92.94
2023-10-18T00:24:08.719Z,92.84
2023-10-18T00:24:39.416Z,92.94
2023-10-18T00:25:10.161Z,93.15
2023-10-18T00:25:40.734Z,93.46
2023-10-18T00:26:11.372Z,93.35
2023-10-18T00:26:42.033Z,93.15
2023-10-18T00:27:12.592Z,93.04
2023-10-18T00:27:43.233Z,92.94
2023-10-18T00:28:13.894Z,92.84
2023-10-18T00:28:44.515Z,92.84
2023-10-18T00:29:15.149Z,92.63
2023-10-18T00:29:45.771Z,92.43
2023-10-18T00:30:16.379Z,92.53
2023-10-18T00:30:47.091Z,92.53
2023-10-18T00:31:17.706Z,92.63
2023-10-18T00:31:48.491Z,92.74
2023-10-18T00:32:19.104Z,92.94
2023-10-18T00:32:49.792Z,93.04
2023-10-18T00:33:20.477Z,93.15
2023-10-18T00:33:51.150Z,93.35
2023-10-18T00:34:21.816Z,93.56
2023-10-18T00:34:52.420Z,93.35
2023-10-18T00:35:23.766Z,93.35
2023-10-18T00:35:53.611Z,93.35
2023-10-18T00:36:24.241Z,93.25
2023-10-18T00:36:54.874Z,93.25
2023-10-18T00:37:25.431Z,93.04
2023-10-18T00:37:56.805Z,92.94
2023-10-18T00:38:26.947Z,92.84
2023-10-18T00:38:57.547Z,92.84
2023-10-18T00:39:28.406Z,92.94
2023-10-18T00:39:58.669Z,93.35
2023-10-18T00:40:29.242Z,93.46
2023-10-18T00:40:59.855Z,93.35
2023-10-18T00:41:30.495Z,93.46
2023-10-18T00:42:01.103Z,93.50
2023-10-18T00:42:31.753Z,93.46
2023-10-18T00:43:02.418Z,93.50
2023-10-18T00:43:33.105Z,93.40
2023-10-18T00:44:03.683Z,93.29
2023-10-18T00:44:34.284Z,93.29
2023-10-18T00:45:04.899Z,93.29
2023-10-18T00:45:35.510Z,93.40
2023-10-18T00:46:06.155Z,93.50
2023-10-18T00:46:36.796Z,93.50
2023-10-18T00:47:07.410Z,93.50
2023-10-18T00:47:38.069Z,93.60
2023-10-18T00:48:08.653Z,93.81
2023-10-18T00:48:39.278Z,93.91
2023-10-18T00:49:09.918Z,94.02
2023-10-18T00:49:40.469Z,94.02
2023-10-18T00:50:11.092Z,93.91
2023-10-18T00:50:41.675Z,93.91
2023-10-18T00:51:12.283Z,93.91
2023-10-18T00:51:42.944Z,93.81
2023-10-18T00:52:13.595Z,94.02
2023-10-18T00:52:44.149Z,94.23
2023-10-18T00:53:14.817Z,94.12
2023-10-18T00:53:45.379Z,93.91
2023-10-18T00:54:16.026Z,93.60
2023-10-18T00:54:46.663Z,93.60
2023-10-18T00:55:17.246Z,93.71
2023-10-18T00:55:47.885Z,93.81
2023-10-18T00:56:18.459Z,93.81
2023-10-18T00:56:49.122Z,93.71
2023-10-18T00:57:19.708Z,93.40
2023-10-18T00:57:50.464Z,93.19
2023-10-18T00:58:21.123Z,93.29
2023-10-18T00:58:51.726Z,93.60
2023-10-18T00:59:22.381Z,93.81
2023-10-18T01:00:00.499Z,93.91
2023-10-18T01:00:23.733Z,93.91
2023-10-18T01:01:03.113Z,93.91
2023-10-18T01:01:32.776Z,93.81
2023-10-18T01:02:06.272Z,93.81
2023-10-18T01:02:34.413Z,93.71
2023-10-18T01:03:03.795Z,93.85
2023-10-18T01:03:34.679Z,93.81
2023-10-18T01:04:05.449Z,94.06
2023-10-18T01:04:28.728Z,94.37
2023-10-18T01:04:59.314Z,94.27
2023-10-18T01:05:29.938Z,94.23
2023-10-18T01:06:00.549Z,94.43
2023-10-18T01:06:31.258Z,94.58
2023-10-18T01:07:02.058Z,94.37
2023-10-18T01:07:32.829Z,94.06
2023-10-18T01:08:03.522Z,94.06
2023-10-18T01:08:34.181Z,94.17
2023-10-18T01:09:04.810Z,94.17
2023-10-18T01:09:35.490Z,94.27
2023-10-18T01:10:06.157Z,94.37
2023-10-18T01:10:36.725Z,94.27
2023-10-18T01:11:07.380Z,93.96
2023-10-18T01:11:37.981Z,94.06
2023-10-18T01:12:08.574Z,94.27
2023-10-18T01:12:39.238Z,94.48
2023-10-18T01:13:09.875Z,94.58
2023-10-18T01:13:40.479Z,94.48
2023-10-18T01:14:11.154Z,94.58
2023-10-18T01:14:41.760Z,94.58
2023-10-18T01:15:12.359Z,94.17
2023-10-18T01:15:42.986Z,93.85
2023-10-18T01:16:13.631Z,93.75
2023-10-18T01:16:44.264Z,93.54
2023-10-18T01:17:14.861Z,93.44
2023-10-18T01:17:45.501Z,93.65
2023-10-18T01:18:16.135Z,93.75
2023-10-18T01:18:46.765Z,93.96
2023-10-18T01:19:17.468Z,94.06
2023-10-18T01:19:48.054Z,93.96
2023-10-18T01:20:18.655Z,93.65
2023-10-18T01:20:49.396Z,93.65
2023-10-18T01:21:19.990Z,93.85
2023-10-18T01:21:50.651Z,94.06
2023-10-18T01:22:21.242Z,94.06
2023-10-18T01:22:51.849Z,93.96
2023-10-18T01:23:22.486Z,94.06
2023-10-18T01:23:53.106Z,94.06
2023-10-18T01:24:23.733Z,94.17
2023-10-18T01:24:54.365Z,94.27
2023-10-18T01:25:24.953Z,94.27
2023-10-18T01:25:55.588Z,94.37
2023-10-18T01:26:26.230Z,94.58
2023-10-18T01:26:56.844Z,94.37
2023-10-18T01:27:27.444Z,94.37
2023-10-18T01:27:58.084Z,94.37
2023-10-18T01:28:28.665Z,94.27
2023-10-18T01:28:59.293Z,94.06
2023-10-18T01:29:30.078Z,93.96
2023-10-18T01:30:00.711Z,93.96
2023-10-18T01:30:31.350Z,93.96
2023-10-18T01:31:02.011Z,94.06
2023-10-18T01:31:32.779Z,94.06
2023-10-18T01:32:03.577Z,94.17
2023-10-18T01:32:34.159Z,93.96
2023-10-18T01:33:04.829Z,93.65
2023-10-18T01:33:35.396Z,93.54
2023-10-18T01:34:06.076Z,93.75
2023-10-18T01:34:36.682Z,93.85
2023-10-18T01:35:07.289Z,93.85
2023-10-18T01:35:37.893Z,93.85
2023-10-18T01:36:08.528Z,93.96
2023-10-18T01:36:39.196Z,93.96
2023-10-18T01:37:09.879Z,94.06
2023-10-18T01:37:40.487Z,94.06
2023-10-18T01:38:11.089Z,94.27
2023-10-18T01:38:41.692Z,94.37
2023-10-18T01:39:12.313Z,94.37
2023-10-18T01:39:42.936Z,94.48
2023-10-18T01:40:13.557Z,94.37
2023-10-18T01:40:44.145Z,94.37
2023-10-18T01:41:14.752Z,94.27
2023-10-18T01:41:45.375Z,94.37
2023-10-18T01:42:15.986Z,94.37
2023-10-18T01:42:46.614Z,94.37
2023-10-18T01:43:17.200Z,94.48
2023-10-18T01:43:47.807Z,94.48
2023-10-18T01:44:18.408Z,94.48
2023-10-18T01:44:49.019Z,94.37
2023-10-18T01:45:19.627Z,94.37
2023-10-18T01:45:50.246Z,94.27
2023-10-18T01:46:20.913Z,94.17
2023-10-18T01:46:51.529Z,94.17
2023-10-18T01:47:22.183Z,94.06
2023-10-18T01:47:54.218Z,93.85
2023-10-18T01:48:23.802Z,94.06
2023-10-18T01:48:54.439Z,94.17
2023-10-18T01:49:25.015Z,94.17
2023-10-18T01:49:55.620Z,94.06
2023-10-18T01:50:26.198Z,93.96
2023-10-18T01:50:56.799Z,93.96
2023-10-18T01:51:27.415Z,94.17
2023-10-18T01:51:58.085Z,94.27
2023-10-18T01:52:28.678Z,94.17
2023-10-18T01:52:59.279Z,94.06
2023-10-18T01:53:29.907Z,94.06
2023-10-18T01:54:00.514Z,94.06
2023-10-18T01:54:31.118Z,93.75
2023-10-18T01:55:01.789Z,93.75
2023-10-18T01:55:32.342Z,94.06
2023-10-18T01:56:02.954Z,94.06
2023-10-18T01:56:33.552Z,94.06
2023-10-18T01:57:04.195Z,94.06
2023-10-18T01:57:34.746Z,94.27
2023-10-18T01:58:05.402Z,94.06
2023-10-18T01:58:36.082Z,93.96
2023-10-18T01:59:06.694Z,93.85
2023-10-18T01:59:37.289Z,93.75
2023-10-18T02:00:07.942Z,93.96
2023-10-18T02:00:38.523Z,93.13
2023-10-18T02:01:09.213Z,92.93
2023-10-18T02:01:39.821Z,93.33
2023-10-18T02:02:10.446Z,93.44
2023-10-18T02:02:41.145Z,93.65
2023-10-18T02:03:11.886Z,93.85
2023-10-18T02:03:42.559Z,93.65
2023-10-18T02:04:13.293Z,93.75
2023-10-18T02:05:14.441Z,93.85
2023-10-18T02:05:45.048Z,93.85
2023-10-18T02:06:15.647Z,93.85
2023-10-18T02:06:46.271Z,93.85
2023-10-18T02:07:16.918Z,93.85
2023-10-18T02:07:47.483Z,93.85
2023-10-18T02:08:18.080Z,93.85
2023-10-18T02:08:48.686Z,93.75
2023-10-18T02:09:19.419Z,93.75
2023-10-18T02:09:51.098Z,93.65
2023-10-18T02:10:20.866Z,93.65
2023-10-18T02:10:51.449Z,93.75
2023-10-18T02:11:22.058Z,93.85
2023-10-18T02:11:52.649Z,93.85
2023-10-18T02:12:23.268Z,93.96
2023-10-18T02:12:53.872Z,93.96
2023-10-18T02:13:24.474Z,93.96
2023-10-18T02:13:55.052Z,93.65
2023-10-18T02:14:25.653Z,93.44
2023-10-18T02:14:56.282Z,93.65
2023-10-18T02:15:26.886Z,93.85
2023-10-18T02:15:57.543Z,94.27
2023-10-18T02:16:28.184Z,94.37
2023-10-18T02:16:58.824Z,94.06
2023-10-18T02:17:29.509Z,93.96
2023-10-18T02:18:00.134Z,93.85
2023-10-18T02:18:30.809Z,94.06
2023-10-18T02:19:01.443Z,94.17
2023-10-18T02:19:32.253Z,94.17
2023-10-18T02:20:02.404Z,94.17
2023-10-18T02:20:33.014Z,94.17
2023-10-18T02:21:03.609Z,94.17
2023-10-18T02:21:34.218Z,94.17
2023-10-18T02:22:04.853Z,93.96
2023-10-18T02:22:35.460Z,93.85
2023-10-18T02:23:06.057Z,94.17
2023-10-18T02:23:36.697Z,94.27
2023-10-18T02:24:07.255Z,94.27
2023-10-18T02:24:38.032Z,94.06
2023-10-18T02:25:08.786Z,93.96
2023-10-18T02:25:39.365Z,94.06
2023-10-18T02:26:10.067Z,94.27
2023-10-18T02:26:40.656Z,94.37
2023-10-18T02:27:11.302Z,94.58
2023-10-18T02:27:41.884Z,94.58
2023-10-18T02:28:12.511Z,94.58
2023-10-18T02:28:43.107Z,94.48
2023-10-18T02:29:13.797Z,94.37
2023-10-18T02:29:44.402Z,94.37
2023-10-18T02:30:15.097Z,94.58
2023-10-18T02:30:45.669Z,94.68
2023-10-18T02:31:16.370Z,94.79
2023-10-18T02:31:47.012Z,94.79
2023-10-18T02:32:17.634Z,94.89
2023-10-18T02:32:48.285Z,95.00
2023-10-18T02:33:18.860Z,94.89
2023-10-18T02:33:49.514Z,94.79
2023-10-18T02:34:29.847Z,94.27
2023-10-18T02:34:51.438Z,94.06
2023-10-18T02:35:21.334Z,93.96
2023-10-18T02:35:51.918Z,94.17
2023-10-18T02:36:22.599Z,94.27
2023-10-18T02:36:53.232Z,93.96
2023-10-18T02:37:23.812Z,93.96
2023-10-18T02:37:54.442Z,94.17
2023-10-18T02:38:25.022Z,94.27
2023-10-18T02:38:55.631Z,94.27
2023-10-18T02:39:26.234Z,94.32
2023-10-18T02:40:05.110Z,94.32
2023-10-18T02:40:28.206Z,94.27
2023-10-18T02:40:58.171Z,94.17
2023-10-18T02:41:28.766Z,94.06
2023-10-18T02:41:59.371Z,94.06
2023-10-18T02:42:29.990Z,94.21
2023-10-18T02:43:00.649Z,94.27
2023-10-18T02:43:31.228Z,94.32
2023-10-18T02:44:01.890Z,94.06
2023-10-18T02:44:32.518Z,94.01
2023-10-18T02:45:03.129Z,94.01
2023-10-18T02:45:33.717Z,94.17
2023-10-18T02:46:04.448Z,94.63
2023-10-18T02:46:35.086Z,95.04
2023-10-18T02:47:05.736Z,95.25
2023-10-18T02:47:36.347Z,95.25
2023-10-18T02:48:06.955Z,95.25
2023-10-18T02:48:37.515Z,95.25
2023-10-18T02:49:08.144Z,95.20
2023-10-18T02:49:38.783Z,95.10
2023-10-18T02:50:09.405Z,94.94
2023-10-18T02:50:40.007Z,94.63
2023-10-18T02:51:10.599Z,94.63
2023-10-18T02:51:41.223Z,94.84
2023-10-18T02:52:11.818Z,94.94
2023-10-18T02:52:42.405Z,94.63
2023-10-18T02:53:13.010Z,94.63
2023-10-18T02:53:43.634Z,94.73
2023-10-18T02:54:14.246Z,94.63
2023-10-18T02:54:44.881Z,94.53
2023-10-18T02:55:15.514Z,94.84
2023-10-18T02:55:46.098Z,94.84
2023-10-18T02:56:16.702Z,94.73
2023-10-18T02:56:47.367Z,94.63
2023-10-18T02:57:17.976Z,94.73
2023-10-18T02:57:48.679Z,94.84
2023-10-18T02:58:19.350Z,94.84
2023-10-18T02:58:49.979Z,95.04
2023-10-18T02:59:20.557Z,95.25
2023-10-18T02:59:51.189Z,95.36
2023-10-18T03:00:21.923Z,95.25
2023-10-18T03:00:52.518Z,95.15
2023-10-18T03:01:23.286Z,95.15
2023-10-18T03:01:53.913Z,95.15
2023-10-18T03:02:24.504Z,95.25
2023-10-18T03:02:55.126Z,95.25
2023-10-18T03:03:25.744Z,95.15
2023-10-18T03:03:56.381Z,94.94
2023-10-18T03:04:27.057Z,94.94
2023-10-18T03:04:57.718Z,95.04
2023-10-18T03:05:28.304Z,94.94
2023-10-18T03:05:58.908Z,94.53
2023-10-18T03:06:29.581Z,94.32
2023-10-18T03:07:00.197Z,94.42
2023-10-18T03:07:30.778Z,94.73
2023-10-18T03:08:01.381Z,94.84
2023-10-18T03:08:31.998Z,94.73
2023-10-18T03:09:02.602Z,94.53
2023-10-18T03:09:33.248Z,94.53
2023-10-18T03:10:03.896Z,94.42
2023-10-18T03:10:34.535Z,94.32
2023-10-18T03:11:05.152Z,94.32
2023-10-18T03:11:35.739Z,94.53
2023-10-18T03:12:06.344Z,94.63
2023-10-18T03:12:36.966Z,94.63
2023-10-18T03:13:07.609Z,94.73
2023-10-18T03:13:38.222Z,94.73
2023-10-18T03:14:08.801Z,94.84
2023-10-18T03:14:39.442Z,94.94
2023-10-18T03:15:10.047Z,94.94
2023-10-18T03:15:48.718Z,94.94
2023-10-18T03:16:12.081Z,94.84
2023-10-18T03:16:42.000Z,94.94
2023-10-18T03:17:12.701Z,94.94
2023-10-18T03:17:43.361Z,94.84
2023-10-18T03:18:13.978Z,94.73
2023-10-18T03:18:44.633Z,94.94
2023-10-18T03:19:15.248Z,95.25
2023-10-18T03:19:45.866Z,94.94
2023-10-18T03:20:16.453Z,94.84
2023-10-18T03:20:47.070Z,95.04
2023-10-18T03:21:17.676Z,95.15
2023-10-18T03:21:48.521Z,95.15
2023-10-18T03:22:19.175Z,95.15
2023-10-18T03:22:49.753Z,95.15
2023-10-18T03:23:20.365Z,95.25
2023-10-18T03:23:50.953Z,95.46
2023-10-18T03:24:21.578Z,95.15
2023-10-18T03:24:52.206Z,95.15
2023-10-18T03:25:22.841Z,95.15
2023-10-18T03:25:53.454Z,95.25
2023-10-18T03:26:24.048Z,95.36
2023-10-18T03:26:54.635Z,95.36
2023-10-18T03:27:25.236Z,95.56
2023-10-18T03:27:55.919Z,95.77
2023-10-18T03:28:26.536Z,95.56
2023-10-18T03:29:05.749Z,95.36
2023-10-18T03:29:27.440Z,95.25
2023-10-18T03:29:58.101Z,95.15
2023-10-18T03:30:28.694Z,95.25
2023-10-18T03:31:07.899Z,95.15
2023-10-18T03:31:29.807Z,95.25
2023-10-18T03:32:07.969Z,95.25
2023-10-18T03:32:31.164Z,95.36
2023-10-18T03:33:01.797Z,95.36
2023-10-18T03:33:32.366Z,95.25
2023-10-18T03:34:03.053Z,95.15
2023-10-18T03:34:33.725Z,95.04
2023-10-18T03:35:04.302Z,94.79
2023-10-18T03:35:34.922Z,94.89
2023-10-18T03:36:18.154Z,94.89
2023-10-18T03:36:36.896Z,94.89
2023-10-18T03:37:06.796Z,94.58
2023-10-18T03:37:37.376Z,94.68
2023-10-18T03:38:07.981Z,94.68
2023-10-18T03:38:38.591Z,94.58
2023-10-18T03:39:09.212Z,94.68
2023-10-18T03:39:39.806Z,94.79
2023-10-18T03:40:10.487Z,94.89
2023-10-18T03:40:41.090Z,94.58
2023-10-18T03:41:11.700Z,94.27
2023-10-18T03:41:42.372Z,94.12
2023-10-18T03:42:12.973Z,94.23
2023-10-18T03:42:43.586Z,94.12
2023-10-18T03:43:14.208Z,94.12
2023-10-18T03:43:44.849Z,94.02
2023-10-18T03:44:15.484Z,93.91
2023-10-18T03:44:46.080Z,93.60
2023-10-18T03:45:16.686Z,93.19
2023-10-18T03:45:47.394Z,93.08
2023-10-18T03:46:18.092Z,93.29
2023-10-18T03:46:48.921Z,93.35
2023-10-18T03:47:19.633Z,93.25
2023-10-18T03:47:50.216Z,93.15
2023-10-18T03:48:20.820Z,93.15
2023-10-18T03:48:51.518Z,93.04
2023-10-18T03:49:22.104Z,93.04
2023-10-18T03:49:52.691Z,92.94
2023-10-18T03:50:23.303Z,92.74
2023-10-18T03:50:56.028Z,92.84
2023-10-18T03:51:24.919Z,92.84
2023-10-18T03:51:54.956Z,92.53
2023-10-18T03:52:25.576Z,92.32
2023-10-18T03:52:56.191Z,92.49
2023-10-18T03:53:26.815Z,92.49
2023-10-18T03:53:57.569Z,91.97
2023-10-18T03:54:28.182Z,91.97
2023-10-18T03:54:58.764Z,91.97
2023-10-18T03:55:29.394Z,91.97
2023-10-18T03:56:00.000Z,91.86
2023-10-18T03:56:30.623Z,91.76
2023-10-18T03:57:01.315Z,91.03
2023-10-18T03:57:31.912Z,90.72
2023-10-18T03:58:02.560Z,90.58
2023-10-18T03:58:33.120Z,90.99
2023-10-18T03:59:03.783Z,90.99
2023-10-18T03:59:34.366Z,90.78
2023-10-18T04:00:04.961Z,90.68
2023-10-18T04:00:35.562Z,90.58
2023-10-18T04:01:06.204Z,90.68
2023-10-18T04:01:36.904Z,90.47
2023-10-18T04:02:07.590Z,89.96
2023-10-18T04:02:38.233Z,90.37
2023-10-18T04:03:11.147Z,90.37
2023-10-18T04:03:39.136Z,90.06
2023-10-18T04:04:09.834Z,90.37
2023-10-18T04:04:40.532Z,90.68
2023-10-18T04:05:11.177Z,90.58
2023-10-18T04:05:41.784Z,90.58
2023-10-18T04:06:12.386Z,90.89
2023-10-18T04:06:43.062Z,91.09
2023-10-18T04:07:13.870Z,90.89
2023-10-18T04:07:44.653Z,90.78
2023-10-18T04:08:15.468Z,90.58
2023-10-18T04:08:45.623Z,90.47
2023-10-18T04:09:16.267Z,90.37
2023-10-18T04:09:46.925Z,90.68
2023-10-18T04:10:17.604Z,90.47
2023-10-18T04:10:48.189Z,90.41
2023-10-18T04:11:18.767Z,90.72
2023-10-18T04:11:49.371Z,91.03
2023-10-18T04:12:19.975Z,91.03
2023-10-18T04:12:50.637Z,90.83
2023-10-18T04:13:21.242Z,90.62
2023-10-18T04:13:51.859Z,91.03
2023-10-18T04:14:22.502Z,91.24
2023-10-18T04:14:53.135Z,91.14
2023-10-18T04:15:23.728Z,91.45
2023-10-18T04:15:54.349Z,91.35
2023-10-18T04:16:24.996Z,91.24
2023-10-18T04:16:55.653Z,91.24
2023-10-18T04:17:26.230Z,91.14
2023-10-18T04:17:56.894Z,91.45
2023-10-18T04:18:27.840Z,91.55
2023-10-18T04:18:57.951Z,91.76
2023-10-18T04:19:28.797Z,91.76
2023-10-18T04:19:58.910Z,91.86
2023-10-18T04:20:29.508Z,91.86
2023-10-18T04:21:00.100Z,92.28
2023-10-18T04:21:30.710Z,91.97
2023-10-18T04:22:01.344Z,91.66
2023-10-18T04:22:32.074Z,91.55
2023-10-18T04:23:02.664Z,91.35
2023-10-18T04:23:33.271Z,91.03
2023-10-18T04:24:03.878Z,91.14
2023-10-18T04:24:34.474Z,91.24
2023-10-18T04:25:05.127Z,91.14
2023-10-18T04:25:35.729Z,90.93
2023-10-18T04:26:06.327Z,90.83
2023-10-18T04:26:36.932Z,91.03
2023-10-18T04:27:07.527Z,91.14
2023-10-18T04:27:38.135Z,90.83
2023-10-18T04:28:08.764Z,90.93
2023-10-18T04:28:39.358Z,91.24
2023-10-18T04:29:09.941Z,91.35
2023-10-18T04:29:40.582Z,91.14
2023-10-18T04:30:11.191Z,91.35
2023-10-18T04:30:41.804Z,91.55
2023-10-18T04:31:12.473Z,91.55
2023-10-18T04:31:43.162Z,91.45
2023-10-18T04:32:13.728Z,91.45
2023-10-18T04:32:44.384Z,91.66
2023-10-18T04:33:15.017Z,91.86
2023-10-18T04:33:45.659Z,91.24
2023-10-18T04:34:16.290Z,90.93
2023-10-18T04:34:46.917Z,90.97
2023-10-18T04:35:17.517Z,91.14
2023-10-18T04:35:48.123Z,91.14
2023-10-18T04:36:18.760Z,91.14
2023-10-18T04:36:49.373Z,91.45
2023-10-18T04:37:19.981Z,91.35
2023-10-18T04:37:50.588Z,91.24
2023-10-18T04:38:21.191Z,91.35
2023-10-18T04:38:51.795Z,91.45
2023-10-18T04:39:22.399Z,91.14
2023-10-18T04:39:53.017Z,90.31
2023-10-18T04:40:23.715Z,90.10
2023-10-18T04:40:54.402Z,90.10
2023-10-18T04:41:25.639Z,90.72
2023-10-18T04:41:55.281Z,91.24
2023-10-18T04:42:25.884Z,91.14
2023-10-18T04:42:56.547Z,91.03
2023-10-18T04:43:27.176Z,90.83
2023-10-18T04:43:57.772Z,90.83
2023-10-18T04:44:28.340Z,91.14
2023-10-18T04:44:58.949Z,91.14
2023-10-18T04:45:29.670Z,91.14
2023-10-18T04:46:00.352Z,91.35
2023-10-18T04:46:31.050Z,91.45
2023-10-18T04:47:01.816Z,91.14
2023-10-18T04:47:32.493Z,91.03
2023-10-18T04:48:03.146Z,90.83
2023-10-18T04:48:33.695Z,91.14
2023-10-18T04:49:04.316Z,91.45
2023-10-18T04:49:34.948Z,91.14
2023-10-18T04:50:05.569Z,90.97
2023-10-18T04:50:36.141Z,90.87
2023-10-18T04:51:06.746Z,90.87
2023-10-18T04:51:37.354Z,91.08
2023-10-18T04:52:08.068Z,91.49
2023-10-18T04:52:38.801Z,91.49
2023-10-18T04:53:09.423Z,91.18
2023-10-18T04:53:40.001Z,91.18
2023-10-18T04:54:11.702Z,91.39
2023-10-18T04:54:41.199Z,91.08
2023-10-18T04:55:11.814Z,91.08
2023-10-18T04:55:42.443Z,91.70
2023-10-18T04:56:13.107Z,91.91
2023-10-18T04:56:43.750Z,91.80
2023-10-18T04:57:14.306Z,91.60
2023-10-18T04:57:44.922Z,91.18
2023-10-18T04:58:15.550Z,91.28
2023-10-18T04:58:46.146Z,91.60
2023-10-18T04:59:16.745Z,91.80
2023-10-18T04:59:47.436Z,91.91
2023-10-18T05:00:18.006Z,91.91
2023-10-18T05:00:48.741Z,92.11
2023-10-18T05:01:19.334Z,92.32
2023-10-18T05:01:49.947Z,92.43
2023-10-18T05:02:20.529Z,92.11
2023-10-18T05:02:51.210Z,91.80
2023-10-18T05:03:22.313Z,91.70
2023-10-18T05:03:52.198Z,92.11
2023-10-18T05:04:22.807Z,92.26
2023-10-18T05:04:53.373Z,92.26
2023-10-18T05:05:23.991Z,92.26
2023-10-18T05:05:54.636Z,92.36
2023-10-18T05:06:25.215Z,92.26
2023-10-18T05:06:55.881Z,92.26
2023-10-18T05:07:26.529Z,92.47
2023-10-18T05:07:57.178Z,92.16
2023-10-18T05:08:27.735Z,92.26
2023-10-18T05:08:58.353Z,92.05
2023-10-18T05:09:29.151Z,91.85
2023-10-18T05:09:59.955Z,91.95
2023-10-18T05:10:30.525Z,92.26
2023-10-18T05:11:01.151Z,92.47
2023-10-18T05:11:31.761Z,92.26
2023-10-18T05:12:02.365Z,92.57
2023-10-18T05:12:32.978Z,93.08
2023-10-18T05:13:03.617Z,93.40
2023-10-18T05:13:34.191Z,93.50
2023-10-18T05:14:04.820Z,93.60
2023-10-18T05:14:50.127Z,93.50
2023-10-18T05:15:06.812Z,92.88
2023-10-18T05:15:39.514Z,92.98
2023-10-18T05:16:07.463Z,93.29
2023-10-18T05:16:38.143Z,93.50
2023-10-18T05:17:08.822Z,93.19
2023-10-18T05:17:39.430Z,92.47
2023-10-18T05:18:10.085Z,92.43
2023-10-18T05:18:40.530Z,92.74
2023-10-18T05:19:11.192Z,92.74
2023-10-18T05:19:41.815Z,91.91
2023-10-18T05:20:12.450Z,91.18
2023-10-18T05:20:43.070Z,91.03
2023-10-18T05:21:13.655Z,90.83
2023-10-18T05:21:44.279Z,90.10
2023-10-18T05:22:14.895Z,89.79
2023-10-18T05:22:45.522Z,89.23
2023-10-18T05:23:16.105Z,89.34
2023-10-18T05:23:46.692Z,88.92
2023-10-18T05:24:17.316Z,88.61
2023-10-18T05:24:47.485Z,88.20
2023-10-18T05:25:17.982Z,87.85
2023-10-18T05:25:48.408Z,87.74
2023-10-18T05:26:18.837Z,88.16
2023-10-18T05:26:49.451Z,87.85
2023-10-18T05:27:20.058Z,87.33
2023-10-18T05:27:50.706Z,87.64
2023-10-18T05:28:21.338Z,86.91
2023-10-18T05:28:51.925Z,86.81
2023-10-18T05:29:22.551Z,86.88
2023-10-18T05:29:53.180Z,86.88
2023-10-18T05:30:23.787Z,86.57
2023-10-18T05:30:54.470Z,86.57
2023-10-18T05:31:25.227Z,86.57
2023-10-18T05:31:55.891Z,86.77
2023-10-18T05:32:38.236Z,86.77
2023-10-18T05:32:57.867Z,86.46
2023-10-18T05:33:27.748Z,86.67
2023-10-18T05:33:58.373Z,86.77
2023-10-18T05:34:29.012Z,86.88
2023-10-18T05:35:12.480Z,87.18
2023-10-18T05:35:31.026Z,87.18
2023-10-18T05:36:00.912Z,86.88
2023-10-18T05:36:31.706Z,86.77
2023-10-18T05:37:02.368Z,86.98
2023-10-18T05:37:32.587Z,86.98
2023-10-18T05:38:02.958Z,87.08
2023-10-18T05:38:33.349Z,86.98
2023-10-18T05:39:03.742Z,87.18
2023-10-18T05:39:34.466Z,87.29
2023-10-18T05:40:04.939Z,87.18
2023-10-18T05:40:35.336Z,87.08
2023-10-18T05:41:05.705Z,87.49
2023-10-18T05:41:36.102Z,87.29
2023-10-18T05:42:06.500Z,86.67
2023-10-18T05:42:36.904Z,86.57
2023-10-18T05:43:07.362Z,86.57
2023-10-18T05:43:37.901Z,86.36
2023-10-18T05:44:08.279Z,86.67
2023-10-18T05:44:38.699Z,86.57
2023-10-18T05:45:09.057Z,86.57
2023-10-18T05:45:39.459Z,86.77
2023-10-18T05:46:09.881Z,87.08
2023-10-18T05:46:40.437Z,87.29
2023-10-18T05:47:10.868Z,87.08
2023-10-18T05:47:41.282Z,86.57
2023-10-18T05:48:11.664Z,86.67
2023-10-18T05:48:42.086Z,86.77
2023-10-18T05:49:12.523Z,86.57
2023-10-18T05:49:42.898Z,86.15
2023-10-18T05:50:13.297Z,86.57
2023-10-18T05:50:43.683Z,87.08
2023-10-18T05:51:17.697Z,87.08
2023-10-18T05:51:45.629Z,87.08
2023-10-18T05:52:15.391Z,86.98
2023-10-18T05:52:45.739Z,86.77
2023-10-18T05:53:16.152Z,86.46
2023-10-18T05:53:46.534Z,86.36
2023-10-18T05:54:16.936Z,86.46
2023-10-18T05:54:47.368Z,86.77
2023-10-18T05:55:17.774Z,86.77
2023-10-18T05:55:48.128Z,86.67
2023-10-18T05:56:18.536Z,86.57
2023-10-18T05:56:48.925Z,86.05
2023-10-18T05:57:19.322Z,86.05
2023-10-18T05:57:49.801Z,86.15
2023-10-18T05:58:20.296Z,86.25
2023-10-18T05:58:50.684Z,86.77
2023-10-18T05:59:21.259Z,86.57
2023-10-18T06:00:01.814Z,86.36
2023-10-18T06:00:22.639Z,86.25
2023-10-18T06:00:53.149Z,86.21
2023-10-18T06:01:23.690Z,85.74
2023-10-18T06:01:54.110Z,85.74
2023-10-18T06:02:24.905Z,85.84
2023-10-18T06:02:55.013Z,85.94
2023-10-18T06:03:25.417Z,86.05
2023-10-18T06:03:55.882Z,86.46
2023-10-18T06:04:26.590Z,86.67
2023-10-18T06:04:57.201Z,86.67
2023-10-18T06:05:27.055Z,86.21
2023-10-18T06:05:57.466Z,86.11
2023-10-18T06:06:27.858Z,86.01
2023-10-18T06:06:58.290Z,86.32
2023-10-18T06:07:28.725Z,86.32
2023-10-18T06:07:59.134Z,86.01
2023-10-18T06:08:29.505Z,85.91
2023-10-18T06:08:59.911Z,86.11
2023-10-18T06:09:30.576Z,86.11
2023-10-18T06:10:01.146Z,86.01
2023-10-18T06:10:31.563Z,86.21
2023-10-18T06:11:02.002Z,86.52
2023-10-18T06:11:32.388Z,86.21
2023-10-18T06:12:02.797Z,85.91
2023-10-18T06:12:33.207Z,85.60
2023-10-18T06:13:03.669Z,86.01
2023-10-18T06:13:34.087Z,86.11
2023-10-18T06:14:04.509Z,86.11
2023-10-18T06:14:34.915Z,85.80
2023-10-18T06:15:05.329Z,85.70
2023-10-18T06:15:36.054Z,86.01
2023-10-18T06:16:06.539Z,86.11
2023-10-18T06:16:37.083Z,85.80
2023-10-18T06:17:07.910Z,85.60
2023-10-18T06:17:37.928Z,85.49
2023-10-18T06:18:08.323Z,85.39
2023-10-18T06:18:38.756Z,85.18
2023-10-18T06:19:09.229Z,85.18
2023-10-18T06:19:39.626Z,85.18
2023-10-18T06:20:10.059Z,85.08
2023-10-18T06:20:40.452Z,85.28
2023-10-18T06:21:10.868Z,85.60
2023-10-18T06:21:41.273Z,85.49
2023-10-18T06:22:11.718Z,85.08
2023-10-18T06:22:42.113Z,85.18
2023-10-18T06:23:12.553Z,85.08
2023-10-18T06:23:42.974Z,85.60
2023-10-18T06:24:13.397Z,85.91
2023-10-18T06:24:43.845Z,85.49
2023-10-18T06:25:14.294Z,85.39
2023-10-18T06:25:44.722Z,85.60
2023-10-18T06:26:15.160Z,85.60
2023-10-18T06:26:45.565Z,85.28
2023-10-18T06:27:15.980Z,85.18
2023-10-18T06:27:46.445Z,84.77
2023-10-18T06:28:16.853Z,84.87
2023-10-18T06:28:47.286Z,84.87
2023-10-18T06:29:17.695Z,84.94
2023-10-18T06:29:48.097Z,85.24
2023-10-18T06:30:18.509Z,85.28
2023-10-18T06:30:48.974Z,85.28
2023-10-18T06:31:20.746Z,85.60
2023-10-18T06:31:49.898Z,86.01
2023-10-18T06:32:20.502Z,86.21
2023-10-18T06:32:50.928Z,86.42
2023-10-18T06:33:21.325Z,86.21
2023-10-18T06:33:51.806Z,85.80
2023-10-18T06:34:22.244Z,85.60